Time;durP1;ratioP1;P1;durP2;ratioP2;P2;SDS_P1;SDS_P2;PMS_P1;PMS_P2;Temp;Humidity;BMP_temperature;BMP_pressure;BME280_temperature;BME280_humidity;BME280_pressure;Samples;Min_cycle;Max_cycle;Signal;HPM_P1;HPM_P2
2023/04/03 04:43:46;;;;;;;;;;;;;;;6.63;100.00;99031.66;112768;1246;26842;-56
2023/04/03 04:46:13;;;;;;;;;;;;;;;6.63;100.00;99032.17;110368;1246;26661;-46
2023/04/03 04:48:44;;;;;;;;;;;;;;;6.66;100.00;99033.20;111583;1246;22486;-46
2023/04/03 04:51:13;;;;;;;;;;;;;;;6.66;100.00;99033.38;111497;1246;23264;-55
2023/04/03 04:53:39;;;;;;;;;;;;;;;6.66;100.00;99034.59;111845;1246;22563;-56
2023/04/03 04:56:07;;;;;;;;;;;;;;;6.65;100.00;99034.24;110660;1246;25225;-46
2023/04/03 04:58:37;;;;;;;;;;;;;;;6.67;100.00;99037.36;112188;1246;22459;-56
2023/04/03 05:01:05;;;;;;;;;;;;;;;6.66;100.00;99036.67;113182;1246;23296;-56
2023/04/03 05:03:32;;;;;;;;;;;;;;;6.67;100.00;99037.70;113096;1245;22559;-47
2023/04/03 05:05:59;;;;;;;;;;;;;;;6.70;100.00;99039.08;112100;1246;22449;-47
2023/04/03 05:08:26;;;;;;;;;;;;;;;6.72;100.00;99033.87;111545;1246;22599;-56
2023/04/03 05:10:53;;;;;;;;;;;;;;;6.77;100.00;99038.70;111930;1246;22493;-56
2023/04/03 05:13:23;;;;;;;;;;;;;;;6.83;100.00;99036.94;113199;1246;23412;-46
2023/04/03 05:15:50;;;;;;;;;;;;;;;6.87;100.00;99038.13;112711;1245;22534;-46
2023/04/03 05:18:17;;;;;;;;;;;;;;;6.92;100.00;99039.33;113068;1246;23285;-46
2023/04/03 05:20:44;;;;;;;;;;;;;;;6.98;100.00;99037.55;113187;1246;22455;-46
2023/04/03 05:23:11;;;;;;;;;;;;;;;7.05;100.00;99040.29;112605;1245;22458;-47
2023/04/03 05:25:39;;;;;;;;;;;;;;;7.11;100.00;99041.98;113094;1245;22392;-47
2023/04/03 05:28:06;;;;;;;;;;;;;;;7.15;100.00;99041.96;112774;1246;22508;-47
2023/04/03 05:30:32;;;;;;;;;;;;;;;7.20;100.00;99043.67;112412;1245;22557;-47
2023/04/03 05:33:05;;;;;;;;;;;;;;;7.28;100.00;99044.84;112528;1246;22953;-58
2023/04/03 05:35:43;;;;;;;;;;;;;;;7.34;100.00;99046.70;112799;1246;22698;-55
2023/04/03 05:38:14;;;;;;;;;;;;;;;7.39;100.00;99047.02;112882;1246;22392;-56
2023/04/03 05:40:44;;;;;;;;;;;;;;;7.42;100.00;99041.59;113115;1245;22374;-46
2023/04/03 05:43:10;;;;;;;;;;;;;;;7.41;100.00;99046.30;113038;1246;22418;-55
2023/04/03 05:45:40;;;;;;;;;;;;;;;7.39;100.00;99044.07;112919;1246;23326;-45
2023/04/03 05:48:20;;;;;;;;;;;;;;;7.40;100.00;99049.08;112740;1245;23177;-56
2023/04/03 05:50:48;;;;;;;;;;;;;;;7.42;100.00;99048.89;113078;1246;22881;-46
2023/04/03 05:53:33;;;;;;;;;;;;;;;7.42;100.00;99054.27;112267;1246;22449;-48
2023/04/03 05:56:23;;;;;;;;;;;;;;;7.41;100.00;99056.17;111939;1246;22504;-46
2023/04/03 05:58:59;;;;;;;;;;;;;;;7.43;100.00;99059.83;112544;1245;22564;-57
2023/04/03 06:01:26;;;;;;;;;;;;;;;7.47;100.00;99063.09;113086;1246;23186;-55
2023/04/03 06:03:54;;;;;;;;;;;;;;;7.55;100.00;99061.48;113086;1245;22386;-55
2023/04/03 06:06:21;;;;;;;;;;;;;;;7.65;100.00;99061.23;112541;1246;22467;-45
2023/04/03 06:08:48;;;;;;;;;;;;;;;7.76;100.00;99064.95;113051;1245;22527;-46
2023/04/03 06:11:15;;;;;;;;;;;;;;;7.84;100.00;99065.05;112475;1245;22613;-55
2023/04/03 06:13:42;;;;;;;;;;;;;;;7.89;100.00;99067.45;112487;1245;22955;-46
2023/04/03 06:16:11;;;;;;;;;;;;;;;7.92;100.00;99071.41;113244;1246;22379;-47
2023/04/03 06:18:41;;;;;;;;;;;;;;;7.96;100.00;99075.90;113195;1245;22514;-47
2023/04/03 06:21:07;;;;;;;;;;;;;;;8.01;100.00;99077.41;113159;1245;22387;-47
2023/04/03 06:23:34;;;;;;;;;;;;;;;8.04;100.00;99082.24;113324;1246;22473;-47
2023/04/03 06:26:01;;;;;;;;;;;;;;;8.06;100.00;99083.97;112593;1245;22466;-55
2023/04/03 06:28:30;;;;;;;;;;;;;;;8.06;100.00;99084.33;113084;1245;230790;-56
2023/04/03 06:30:57;;;;;;;;;;;;;;;8.06;100.00;99083.98;113228;1245;23521;-56
2023/04/03 06:33:25;;;;;;;;;;;;;;;8.07;100.00;99084.66;113255;1245;22394;-56
2023/04/03 06:35:55;;;;;;;;;;;;;;;8.10;100.00;99087.75;113251;1246;22425;-56
2023/04/03 06:38:23;;;;;;;;;;;;;;;8.14;100.00;99090.49;112961;1245;22452;-47
2023/04/03 06:40:51;;;;;;;;;;;;;;;8.18;100.00;99093.06;113245;1246;22415;-48
2023/04/03 06:43:19;;;;;;;;;;;;;;;8.21;100.00;99096.51;112872;1246;23109;-56
2023/04/03 06:45:50;;;;;;;;;;;;;;;8.22;100.00;99094.92;112730;1246;23203;-56
2023/04/03 06:48:18;;;;;;;;;;;;;;;8.22;100.00;99096.66;113089;1245;23886;-56
2023/04/03 06:50:45;;;;;;;;;;;;;;;8.19;100.00;99097.91;112796;1246;23307;-46
2023/04/03 06:53:12;;;;;;;;;;;;;;;8.19;100.00;99100.01;113161;1246;22379;-53
2023/04/03 06:55:39;;;;;;;;;;;;;;;8.18;100.00;99100.02;112966;1246;23258;-56
2023/04/03 06:58:12;;;;;;;;;;;;;;;8.15;100.00;99098.48;113160;1245;22480;-57
2023/04/03 07:00:39;;;;;;;;;;;;;;;8.13;100.00;99102.14;113171;1246;22395;-57
2023/04/03 07:03:07;;;;;;;;;;;;;;;8.10;100.00;99102.50;113123;1245;22937;-57
2023/04/03 07:05:34;;;;;;;;;;;;;;;8.08;100.00;99106.53;113013;1245;22527;-46
2023/04/03 07:08:03;;;;;;;;;;;;;;;8.07;100.00;99109.48;112878;1244;23723;-48
2023/04/03 07:10:31;;;;;;;;;;;;;;;8.05;100.00;99109.14;111119;1245;22569;-55
2023/04/03 07:12:58;;;;;;;;;;;;;;;8.05;100.00;99112.96;113184;1245;22402;-55
2023/04/03 07:15:25;;;;;;;;;;;;;;;8.06;100.00;99117.13;113297;1246;22488;-55
2023/04/03 07:17:52;;;;;;;;;;;;;;;8.05;100.00;99120.96;113129;1245;23395;-55
2023/04/03 07:20:19;;;;;;;;;;;;;;;8.04;100.00;99122.88;113280;1245;22403;-56
2023/04/03 07:22:46;;;;;;;;;;;;;;;8.05;100.00;99123.04;112969;1245;22390;-55
2023/04/03 07:25:13;;;;;;;;;;;;;;;8.08;100.00;99123.20;112969;1246;23539;-56
2023/04/03 07:27:40;;;;;;;;;;;;;;;8.07;100.00;99124.96;113014;1246;22368;-46
2023/04/03 07:30:09;;;;;;;;;;;;;;;8.10;100.00;99122.84;112987;1245;22437;-56
2023/04/03 07:32:36;;;;;;;;;;;;;;;8.15;100.00;99127.30;113024;1245;22958;-56
2023/04/03 07:35:04;;;;;;;;;;;;;;;8.18;100.00;99127.80;112396;1245;25241;-57
2023/04/03 07:37:34;;;;;;;;;;;;;;;8.19;100.00;99130.40;112774;1245;22492;-46
2023/04/03 07:40:04;;;;;;;;;;;;;;;8.16;100.00;99136.33;113163;1245;23019;-51
2023/04/03 07:42:37;;;;;;;;;;;;;;;8.14;100.00;99139.30;113118;1245;23493;-45
2023/04/03 07:45:06;;;;;;;;;;;;;;;8.12;100.00;99145.23;112229;1245;23225;-56
2023/04/03 07:47:34;;;;;;;;;;;;;;;8.10;100.00;99149.41;113063;1245;22469;-50
2023/04/03 07:50:07;;;;;;;;;;;;;;;8.13;100.00;99148.52;111885;1245;22588;-56
2023/04/03 07:52:50;;;;;;;;;;;;;;;8.18;100.00;99153.34;112178;1246;22507;-46
2023/04/03 07:55:26;;;;;;;;;;;;;;;8.24;100.00;99150.31;112204;1245;22674;-46
2023/04/03 07:58:00;;;;;;;;;;;;;;;8.36;100.00;99148.50;111741;1245;23859;-46
2023/04/03 08:00:29;;;;;;;;;;;;;;;8.47;100.00;99151.55;112238;1246;23165;-56
2023/04/03 08:03:05;;;;;;;;;;;;;;;8.58;100.00;99152.30;113201;1245;23145;-55
2023/04/03 08:05:37;;;;;;;;;;;;;;;8.65;100.00;99151.36;113109;1245;22354;-47
2023/04/03 08:08:04;;;;;;;;;;;;;;;8.68;100.00;99154.98;113053;1245;22466;-56
2023/04/03 08:10:31;;;;;;;;;;;;;;;8.68;100.00;99158.80;113121;1246;22486;-47
2023/04/03 08:12:58;;;;;;;;;;;;;;;8.66;100.00;99156.92;113185;1245;22426;-57
2023/04/03 08:15:31;;;;;;;;;;;;;;;8.64;100.00;99159.18;112485;1245;22497;-45
2023/04/03 08:18:24;;;;;;;;;;;;;;;8.65;100.00;99164.23;112941;1246;22486;-55
2023/04/03 08:20:51;;;;;;;;;;;;;;;8.69;100.00;99164.35;112246;1245;22497;-49
2023/04/03 08:23:18;;;;;;;;;;;;;;;8.71;100.00;99166.44;112334;1245;23656;-56
2023/04/03 08:25:47;;;;;;;;;;;;;;;8.71;100.00;99171.83;113220;1245;23009;-57
2023/04/03 08:28:14;;;;;;;;;;;;;;;8.71;100.00;99174.78;113219;1245;22782;-56
2023/04/03 08:30:42;;;;;;;;;;;;;;;8.71;100.00;99180.68;113280;1245;22377;-46
2023/04/03 08:33:10;;;;;;;;;;;;;;;8.72;100.00;99183.30;113252;1245;23230;-56
2023/04/03 08:35:41;;;;;;;;;;;;;;;8.73;100.00;99185.70;112514;1245;24339;-57
2023/04/03 08:38:09;;;;;;;;;;;;;;;8.75;100.00;99183.94;112779;1245;22474;-57
2023/04/03 08:40:36;;;;;;;;;;;;;;;8.78;100.00;99185.83;112883;1245;22463;-57
2023/04/03 08:43:06;;;;;;;;;;;;;;;8.79;100.00;99191.55;112997;1245;23146;-46
2023/04/03 08:45:42;;;;;;;;;;;;;;;8.80;100.00;99190.14;113166;1246;22402;-56
2023/04/03 08:48:21;;;;;;;;;;;;;;;8.80;100.00;99194.65;113021;1245;22485;-46
2023/04/03 08:50:51;;;;;;;;;;;;;;;8.84;100.00;99193.95;113092;1245;23218;-55
2023/04/03 08:53:28;;;;;;;;;;;;;;;8.90;100.00;99197.17;112982;1245;23616;-47
2023/04/03 08:55:54;;;;;;;;;;;;;;;8.97;100.00;99200.23;112762;1237;22475;-46
2023/04/03 08:58:22;;;;;;;;;;;;;;;9.02;100.00;99201.91;113020;1245;22500;-55
2023/04/03 09:01:01;;;;;;;;;;;;;;;9.11;100.00;99202.33;113072;1245;22430;-46
2023/04/03 09:03:30;;;;;;;;;;;;;;;9.23;100.00;99205.85;113160;1245;22882;-56
2023/04/03 09:06:05;;;;;;;;;;;;;;;9.34;100.00;99208.16;112687;1244;22488;-45
2023/04/03 09:08:50;;;;;;;;;;;;;;;9.40;100.00;99212.59;113177;1245;22472;-48
2023/04/03 09:11:21;;;;;;;;;;;;;;;9.42;100.00;99215.36;112727;1245;24236;-56
2023/04/03 09:14:12;;;;;;;;;;;;;;;9.41;100.00;99217.98;112855;1239;22406;-55
2023/04/03 09:16:39;;;;;;;;;;;;;;;9.41;100.00;99215.55;112685;1245;23148;-55
2023/04/03 09:19:10;;;;;;;;;;;;;;;9.40;100.00;99222.17;112413;1245;22583;-55
2023/04/03 09:21:43;;;;;;;;;;;;;;;9.38;100.00;99223.23;112388;1245;22503;-47
2023/04/03 09:24:12;;;;;;;;;;;;;;;9.33;100.00;99225.39;111549;1245;22486;-56
2023/04/03 09:26:52;;;;;;;;;;;;;;;9.31;100.00;99232.55;112565;1245;22475;-54
2023/04/03 09:29:20;;;;;;;;;;;;;;;9.29;100.00;99235.88;113264;1245;22869;-55
2023/04/03 09:31:48;;;;;;;;;;;;;;;9.28;100.00;99239.20;113299;1245;22418;-54
2023/04/03 09:34:26;;;;;;;;;;;;;;;9.29;100.00;99238.48;113157;1245;22412;-55
2023/04/03 09:36:53;;;;;;;;;;;;;;;9.35;100.00;99238.77;112901;1245;22491;-45
2023/04/03 09:39:21;;;;;;;;;;;;;;;9.41;100.00;99239.91;112787;1245;22471;-55
2023/04/03 09:41:55;;;;;;;;;;;;;;;9.48;100.00;99242.61;112865;1245;22465;-47
2023/04/03 09:44:33;;;;;;;;;;;;;;;9.58;100.00;99243.01;112411;1245;22594;-46
2023/04/03 09:47:17;;;;;;;;;;;;;;;9.74;100.00;99242.27;113048;1245;23837;-55
2023/04/03 09:49:44;;;;;;;;;;;;;;;9.95;100.00;99250.02;112398;1245;22440;-53
2023/04/03 09:52:20;;;;;;;;;;;;;;;10.04;100.00;99247.09;113155;1245;22435;-44
2023/04/03 09:54:46;;;;;;;;;;;;;;;10.06;100.00;99251.77;113185;1245;23299;-52
2023/04/03 09:57:13;;;;;;;;;;;;;;;10.06;100.00;99254.20;113318;1245;22377;-45
2023/04/03 09:59:44;;;;;;;;;;;;;;;10.04;100.00;99253.02;113316;1245;22400;-45
2023/04/03 10:02:10;;;;;;;;;;;;;;;10.02;100.00;99252.16;112696;1245;22438;-45
2023/04/03 10:04:38;;;;;;;;;;;;;;;10.04;100.00;99252.84;113349;1245;22395;-46
2023/04/03 10:07:25;;;;;;;;;;;;;;;10.12;100.00;99251.86;113367;1245;22373;-46
2023/04/03 10:09:58;;;;;;;;;;;;;;;10.29;99.72;99254.77;112511;1245;22515;-54
2023/04/03 10:12:25;;;;;;;;;;;;;;;10.44;99.09;99256.09;113388;1245;22333;-54
2023/04/03 10:14:52;;;;;;;;;;;;;;;10.58;97.51;99259.02;112987;1245;22462;-54
2023/04/03 10:17:37;;;;;;;;;;;;;;;10.69;97.00;99261.98;112286;1245;22611;-45
2023/04/03 10:20:09;;;;;;;;;;;;;;;10.79;97.48;99264.23;112639;1245;22674;-46
2023/04/03 10:22:36;;;;;;;;;;;;;;;10.88;96.98;99270.02;113312;1245;22325;-46
2023/04/03 10:25:18;;;;;;;;;;;;;;;10.91;95.55;99276.42;113460;1245;22380;-55
2023/04/03 10:27:45;;;;;;;;;;;;;;;10.84;93.51;99284.02;113284;1245;23044;-55
2023/04/03 10:30:21;;;;;;;;;;;;;;;10.72;93.76;99290.17;113432;1245;22456;-54
2023/04/03 10:32:52;;;;;;;;;;;;;;;10.50;95.68;99291.73;111080;1245;25221;-55
2023/04/03 10:35:25;;;;;;;;;;;;;;;10.28;97.14;99302.34;110899;1245;22514;-54
2023/04/03 10:38:11;;;;;;;;;;;;;;;10.09;98.95;99305.04;110783;1245;22475;-46
2023/04/03 10:40:46;;;;;;;;;;;;;;;9.93;99.92;99316.39;112788;1245;22446;-46
2023/04/03 10:43:13;;;;;;;;;;;;;;;9.82;100.00;99320.38;110841;1245;22538;-54
2023/04/03 10:45:43;;;;;;;;;;;;;;;9.73;100.00;99321.02;111728;1245;22455;-53
2023/04/03 10:48:29;;;;;;;;;;;;;;;9.66;100.00;99324.58;113429;1245;23002;-46
2023/04/03 10:51:15;;;;;;;;;;;;;;;9.60;100.00;99327.94;113366;1245;22310;-54
2023/04/03 10:53:42;;;;;;;;;;;;;;;9.55;100.00;99329.04;113364;1245;22399;-48
2023/04/03 10:56:28;;;;;;;;;;;;;;;9.53;100.00;99330.81;113427;1245;22481;-54
2023/04/03 10:59:13;;;;;;;;;;;;;;;9.50;100.00;99333.80;112604;1253;22421;-53
2023/04/03 11:01:42;;;;;;;;;;;;;;;9.49;100.00;99331.20;112583;1253;22421;-54
2023/04/03 11:04:10;;;;;;;;;;;;;;;9.47;100.00;99332.96;111919;1253;23308;-54
2023/04/03 11:06:47;;;;;;;;;;;;;;;9.46;100.00;99334.02;112495;1253;22490;-54
2023/04/03 11:09:26;;;;;;;;;;;;;;;9.48;100.00;99329.98;111280;1253;22482;-52
2023/04/03 11:11:58;;;;;;;;;;;;;;;9.50;100.00;99330.83;112045;1253;23306;-54
2023/04/03 11:14:29;;;;;;;;;;;;;;;9.51;100.00;99328.73;111365;1253;23321;-46
2023/04/03 11:17:22;;;;;;;;;;;;;;;9.55;100.00;99335.66;112378;1253;22494;-55
2023/04/03 11:19:52;;;;;;;;;;;;;;;9.61;100.00;99335.25;112429;1253;22471;-55
2023/04/03 11:22:22;;;;;;;;;;;;;;;9.68;100.00;99331.16;112504;1253;22561;-55
2023/04/03 11:25:11;;;;;;;;;;;;;;;9.75;100.00;99329.68;111095;1253;22505;-45
2023/04/03 11:27:41;;;;;;;;;;;;;;;9.82;100.00;99333.79;111835;1253;23214;-54
2023/04/03 11:30:17;;;;;;;;;;;;;;;9.84;100.00;99332.86;111829;1253;22464;-54
2023/04/03 11:32:48;;;;;;;;;;;;;;;9.90;100.00;99333.16;111110;1253;22545;-54
2023/04/03 11:35:15;;;;;;;;;;;;;;;9.94;100.00;99339.21;109923;1253;22542;-45
2023/04/03 11:37:46;;;;;;;;;;;;;;;9.95;100.00;99343.89;110265;1245;22489;-53
2023/04/03 11:40:16;;;;;;;;;;;;;;;9.96;100.00;99351.02;111519;1245;26635;-47
2023/04/03 11:42:45;;;;;;;;;;;;;;;9.93;100.00;99349.85;110411;1245;22492;-46
2023/04/03 11:45:21;;;;;;;;;;;;;;;9.88;99.99;99351.83;110708;1245;22474;-55
2023/04/03 11:47:49;;;;;;;;;;;;;;;9.83;100.00;99352.05;111564;1245;22482;-46
2023/04/03 11:50:31;;;;;;;;;;;;;;;9.80;100.00;99351.92;113467;1245;22390;-46
2023/04/03 11:52:59;;;;;;;;;;;;;;;9.75;100.00;99353.73;111533;1245;25401;-54
2023/04/03 11:55:31;;;;;;;;;;;;;;;9.73;100.00;99358.79;111062;1245;23669;-45
2023/04/03 11:58:00;;;;;;;;;;;;;;;9.70;100.00;99359.53;111477;1245;23315;-55
2023/04/03 12:00:51;;;;;;;;;;;;;;;9.68;100.00;99357.45;113119;1245;23082;-46
2023/04/03 12:03:26;;;;;;;;;;;;;;;9.63;100.00;99358.55;112086;1245;22472;-45
2023/04/03 12:06:02;;;;;;;;;;;;;;;9.62;100.00;99363.96;111883;1245;22880;-46
2023/04/03 12:08:43;;;;;;;;;;;;;;;9.61;100.00;99369.54;110686;1245;22614;-46
2023/04/03 12:11:09;;;;;;;;;;;;;;;9.60;100.00;99371.45;110416;1245;22877;-54
2023/04/03 12:13:49;;;;;;;;;;;;;;;9.61;100.00;99371.97;110844;1245;24422;-55
2023/04/03 12:16:28;;;;;;;;;;;;;;;9.63;100.00;99378.06;111625;1245;22515;-46
2023/04/03 12:19:02;;;;;;;;;;;;;;;9.64;100.00;99377.35;111264;1245;25326;-45
2023/04/03 12:21:29;;;;;;;;;;;;;;;9.63;100.00;99381.20;111088;1245;22488;-46
2023/04/03 12:24:00;;;;;;;;;;;;;;;9.63;100.00;99386.95;111114;1245;26565;-45
2023/04/03 12:26:45;;;;;;;;;;;;;;;9.62;99.99;99386.77;111220;1245;25282;-47
2023/04/03 12:29:17;;;;;;;;;;;;;;;9.60;99.99;99387.13;110676;1245;22572;-54
2023/04/03 12:32:02;;;;;;;;;;;;;;;9.59;100.00;99393.24;113192;1245;22465;-55
2023/04/03 12:34:48;;;;;;;;;;;;;;;9.58;100.00;99394.13;110538;1245;22503;-55
2023/04/03 12:37:23;;;;;;;;;;;;;;;9.56;100.00;99396.41;110586;1245;22485;-44
